createdAt,value
2024-05-09T00:01:58.454Z,18.08
2024-05-09T00:04:28.289Z,17.45
2024-05-09T00:06:58.068Z,18.48
2024-05-09T00:09:27.788Z,18.33
2024-05-09T00:12:00.396Z,18.48
2024-05-09T00:14:30.400Z,18.25
2024-05-09T00:17:00.264Z,17.03
2024-05-09T00:19:30.228Z,18.25
2024-05-09T00:22:00.074Z,16.07
2024-05-09T00:24:29.810Z,17.35
2024-05-09T00:27:02.233Z,17.90
2024-05-09T00:29:32.099Z,17.20
2024-05-09T00:32:02.064Z,18.70
2024-05-09T00:34:32.047Z,18.13
2024-05-09T00:37:01.830Z,17.10
2024-05-09T00:39:31.670Z,18.23
2024-05-09T00:42:04.265Z,19.23
2024-05-09T00:44:34.061Z,19.27
2024-05-09T00:47:04.023Z,18.23
2024-05-09T00:49:35.766Z,17.33
2024-05-09T00:52:05.888Z,17.70
2024-05-09T00:54:36.252Z,18.17
2024-05-09T00:57:08.792Z,18.58
2024-05-09T00:59:38.840Z,17.50
2024-05-09T01:02:09.498Z,19.77
2024-05-09T01:04:39.445Z,19.17
2024-05-09T01:07:09.669Z,20.10
2024-05-09T01:09:39.632Z,20.60
2024-05-09T01:12:12.407Z,18.47
2024-05-09T01:14:42.323Z,19.45
2024-05-09T01:17:12.359Z,20.48
2024-05-09T01:19:42.606Z,20.20
2024-05-09T01:22:12.505Z,18.85
2024-05-09T01:24:44.930Z,17.67
2024-05-09T01:27:14.685Z,17.85
2024-05-09T01:29:45.424Z,18.52
2024-05-09T01:32:15.256Z,19.95
2024-05-09T01:34:45.181Z,19.15
2024-05-09T01:37:15.002Z,20.63
2024-05-09T01:39:47.639Z,18.92
2024-05-09T01:42:17.653Z,18.15
2024-05-09T01:44:47.501Z,16.83
2024-05-09T01:47:17.453Z,17.55
2024-05-09T01:49:47.312Z,17.48
2024-05-09T01:52:17.205Z,16.40
2024-05-09T01:54:49.692Z,16.75
2024-05-09T01:57:19.470Z,17.20
2024-05-09T01:59:49.274Z,16.40
2024-05-09T02:02:19.228Z,16.42
2024-05-09T02:04:50.370Z,16.88
2024-05-09T02:07:20.556Z,17.13
2024-05-09T02:09:54.297Z,16.33
2024-05-09T02:12:24.138Z,17.38
2024-05-09T02:14:54.335Z,15.98
2024-05-09T02:17:24.202Z,16.10
2024-05-09T02:19:54.044Z,15.87
2024-05-09T02:22:23.772Z,17.30
2024-05-09T02:24:56.216Z,16.50
2024-05-09T02:27:25.963Z,16.52
2024-05-09T02:29:55.704Z,15.70
2024-05-09T02:32:25.663Z,16.00
2024-05-09T02:34:55.534Z,17.17
2024-05-09T02:37:22.730Z,16.77
2024-05-09T02:39:52.491Z,16.80
2024-05-09T02:42:22.359Z,16.35
2024-05-09T02:44:52.115Z,15.98
2024-05-09T02:47:19.416Z,17.73
2024-05-09T02:49:49.398Z,16.00
2024-05-09T02:52:18.514Z,17.07
2024-05-09T02:54:48.274Z,16.55
2024-05-09T02:57:15.451Z,16.55
2024-05-09T02:59:48.598Z,14.95
2024-05-09T03:02:15.862Z,15.27
2024-05-09T03:04:45.952Z,16.08
2024-05-09T03:07:13.157Z,16.58
2024-05-09T03:09:42.963Z,16.95
2024-05-09T03:12:12.798Z,16.23
2024-05-09T03:14:40.104Z,16.88
2024-05-09T03:17:12.611Z,16.50
2024-05-09T03:19:39.759Z,15.70
2024-05-09T03:22:09.532Z,17.17
2024-05-09T03:24:37.037Z,17.85
2024-05-09T03:27:07.149Z,16.98
2024-05-09T03:29:34.573Z,16.55
2024-05-09T03:32:04.515Z,16.70
2024-05-09T03:34:34.465Z,16.67
2024-05-09T03:37:04.202Z,17.10
2024-05-09T03:39:34.058Z,16.30
2024-05-09T03:42:03.901Z,16.55
2024-05-09T03:44:33.778Z,16.20
2024-05-09T03:47:03.661Z,16.02
2024-05-09T03:49:30.991Z,15.98
2024-05-09T03:52:05.334Z,15.25
2024-05-09T03:54:35.218Z,15.25
2024-05-09T03:57:05.198Z,16.55
2024-05-09T03:59:32.561Z,17.00
2024-05-09T04:02:02.879Z,16.75
2024-05-09T04:04:30.148Z,16.08
2024-05-09T04:06:59.950Z,15.52
2024-05-09T04:09:29.739Z,16.50
2024-05-09T04:11:59.613Z,16.35
2024-05-09T04:14:26.898Z,15.70
2024-05-09T04:16:56.761Z,17.00
2024-05-09T04:19:24.161Z,15.50
2024-05-09T04:21:54.063Z,15.40
2024-05-09T04:24:21.180Z,16.27
2024-05-09T04:26:53.564Z,16.35
2024-05-09T04:29:20.934Z,16.17
2024-05-09T04:31:50.782Z,15.18
2024-05-09T04:34:18.040Z,15.73
2024-05-09T04:36:47.846Z,15.60
2024-05-09T04:39:15.097Z,16.17
2024-05-09T04:41:44.993Z,15.98
2024-05-09T04:44:14.772Z,14.68
2024-05-09T04:46:44.626Z,15.50
2024-05-09T04:49:12.143Z,15.35
2024-05-09T04:51:41.960Z,15.63
2024-05-09T04:54:15.636Z,15.93
2024-05-09T04:56:53.203Z,15.90
2024-05-09T04:59:23.117Z,15.65
2024-05-09T05:01:53.038Z,17.60
2024-05-09T05:04:20.315Z,15.57
2024-05-09T05:06:50.173Z,15.90
2024-05-09T05:09:17.312Z,14.98
2024-05-09T05:11:47.221Z,15.38
2024-05-09T05:14:14.439Z,16.00
2024-05-09T05:16:46.891Z,16.45
2024-05-09T05:19:16.979Z,15.88
2024-05-09T05:21:47.523Z,17.10
2024-05-09T05:24:14.634Z,16.45
2024-05-09T05:26:44.493Z,16.08
2024-05-09T05:29:11.684Z,16.00
2024-05-09T05:31:41.590Z,15.57
2024-05-09T05:34:11.378Z,15.63
2024-05-09T05:36:41.146Z,16.08
2024-05-09T05:39:08.341Z,14.63
2024-05-09T05:41:38.166Z,15.35
2024-05-09T05:44:05.555Z,18.02
2024-05-09T05:46:35.406Z,14.93
2024-05-09T05:49:02.675Z,15.85
2024-05-09T05:51:35.226Z,15.32
2024-05-09T05:54:02.405Z,16.50
2024-05-09T05:56:32.237Z,17.33
2024-05-09T05:58:59.588Z,16.00
2024-05-09T06:01:29.354Z,16.70
2024-05-09T06:03:56.686Z,16.98
2024-05-09T06:06:26.414Z,16.30
2024-05-09T06:08:56.151Z,15.63
2024-05-09T06:11:26.097Z,16.60
2024-05-09T06:13:53.403Z,15.30
2024-05-09T06:16:23.185Z,13.95
2024-05-09T06:18:50.353Z,14.80
2024-05-09T06:21:20.224Z,13.77
2024-05-09T06:23:47.450Z,13.20
2024-05-09T06:26:19.932Z,13.80
2024-05-09T06:28:47.195Z,14.63
2024-05-09T06:31:17.039Z,14.68
2024-05-09T06:33:44.312Z,13.65
2024-05-09T06:36:14.942Z,13.50
2024-05-09T06:38:42.239Z,13.50
2024-05-09T06:41:12.595Z,14.38
2024-05-09T06:43:42.440Z,13.73
2024-05-09T06:46:12.323Z,13.38
2024-05-09T06:48:39.765Z,14.10
2024-05-09T06:51:09.764Z,12.90
2024-05-09T06:53:39.768Z,13.35
2024-05-09T06:58:37.911Z,13.27
2024-05-09T07:01:10.612Z,12.48
2024-05-09T07:03:37.882Z,12.30
2024-05-09T07:06:08.315Z,12.60
2024-05-09T07:08:35.684Z,11.98
2024-05-09T07:11:05.551Z,12.57
2024-05-09T07:13:32.842Z,12.25
2024-05-09T07:16:02.865Z,12.38
2024-05-09T07:18:32.805Z,11.68
2024-05-09T07:21:02.781Z,11.20
2024-05-09T07:23:30.079Z,11.87
2024-05-09T07:26:00.465Z,11.75
2024-05-09T07:28:27.650Z,10.73
2024-05-09T07:30:57.374Z,10.13
2024-05-09T07:33:24.976Z,11.55
2024-05-09T07:35:57.504Z,10.10
2024-05-09T07:38:24.702Z,9.93
2024-05-09T07:40:54.484Z,10.45
2024-05-09T07:43:21.655Z,9.50
2024-05-09T07:45:54.332Z,10.20
2024-05-09T07:53:00.865Z,9.38
2024-05-09T07:53:52.298Z,9.38
2024-05-09T07:56:23.768Z,9.40
2024-05-09T07:58:55.663Z,9.30
2024-05-09T08:01:25.863Z,9.73
2024-05-09T08:03:56.148Z,9.52
2024-05-09T08:06:26.783Z,9.40
2024-05-09T08:08:57.871Z,9.50
2024-05-09T08:11:26.861Z,10.57
2024-05-09T08:13:56.610Z,10.07
2024-05-09T08:16:24.076Z,10.23
2024-05-09T08:18:53.935Z,9.60
2024-05-09T08:21:21.098Z,9.77
2024-05-09T08:23:53.505Z,9.32
2024-05-09T08:26:20.921Z,9.60
2024-05-09T08:28:50.750Z,9.10
2024-05-09T08:31:18.142Z,9.75
2024-05-09T08:33:51.245Z,9.80
2024-05-09T08:36:18.476Z,9.63
2024-05-09T08:38:48.346Z,9.73
2024-05-09T08:41:18.135Z,9.65
2024-05-09T08:43:48.772Z,9.48
2024-05-09T08:48:50.756Z,9.20
2024-05-09T08:51:18.106Z,10.15
2024-05-09T08:53:47.958Z,9.68
2024-05-09T08:56:20.536Z,9.18
2024-05-09T08:58:52.541Z,9.85
2024-05-09T09:01:20.764Z,9.07
2024-05-09T09:03:53.512Z,10.20
2024-05-09T09:06:22.091Z,9.13
2024-05-09T09:08:52.012Z,8.52
2024-05-09T09:11:21.857Z,9.55
2024-05-09T09:13:52.295Z,9.05
2024-05-09T09:16:19.535Z,8.48
2024-05-09T09:18:51.355Z,8.45
2024-05-09T09:21:18.656Z,8.32
2024-05-09T09:23:48.397Z,10.48
2024-05-09T09:26:21.336Z,8.82
2024-05-09T09:28:52.004Z,8.88
2024-05-09T09:31:19.410Z,8.85
2024-05-09T09:33:49.708Z,8.40
2024-05-09T09:38:50.978Z,9.25
2024-05-09T09:41:25.853Z,9.32
2024-05-09T09:43:57.074Z,8.85
2024-05-09T09:46:29.097Z,7.88
2024-05-09T09:48:59.252Z,8.77
2024-05-09T09:51:26.882Z,8.70
2024-05-09T09:53:57.197Z,8.18
2024-05-09T09:56:30.364Z,7.90
2024-05-09T09:59:03.082Z,9.48
2024-05-09T10:01:30.750Z,8.38
2024-05-09T10:04:03.993Z,8.38
2024-05-09T10:06:33.545Z,8.90
2024-05-09T10:09:04.254Z,7.60
2024-05-09T10:11:41.818Z,8.10
2024-05-09T10:14:15.953Z,8.57
2024-05-09T10:16:45.913Z,7.80
2024-05-09T10:19:26.784Z,7.90
2024-05-09T10:22:01.080Z,9.18
2024-05-09T10:24:30.913Z,7.28
2024-05-09T10:27:04.312Z,7.00
2024-05-09T10:29:34.056Z,7.07
2024-05-09T10:32:02.975Z,7.47
2024-05-09T10:34:37.344Z,7.60
2024-05-09T10:37:05.069Z,7.85
2024-05-09T10:39:38.325Z,7.72
2024-05-09T10:42:10.108Z,7.57
2024-05-09T10:44:40.815Z,7.13
2024-05-09T10:47:08.136Z,6.93
2024-05-09T10:49:38.404Z,6.55
2024-05-09T10:52:07.848Z,6.32
2024-05-09T10:54:41.486Z,7.43
2024-05-09T10:57:11.331Z,7.38
2024-05-09T10:59:43.127Z,7.43
2024-05-09T11:02:11.298Z,6.50
2024-05-09T11:04:42.926Z,6.63
2024-05-09T11:07:12.994Z,8.15
2024-05-09T11:09:44.503Z,6.68
2024-05-09T11:12:14.614Z,8.07
2024-05-09T11:14:55.437Z,7.32
2024-05-09T11:17:22.731Z,8.02
2024-05-09T11:20:29.700Z,7.03
2024-05-09T11:22:57.905Z,7.88
2024-05-09T11:25:30.481Z,6.85
2024-05-09T11:28:01.479Z,7.13
2024-05-09T11:30:34.830Z,7.07
2024-05-09T11:33:02.794Z,7.45
2024-05-09T11:35:33.202Z,6.35
2024-05-09T11:43:01.834Z,6.22
2024-05-09T11:45:32.117Z,6.50
2024-05-09T11:47:59.503Z,6.00
2024-05-09T11:50:33.192Z,7.38
2024-05-09T11:53:03.159Z,7.05
2024-05-09T11:58:05.994Z,6.90
2024-05-09T12:00:37.599Z,5.53
2024-05-09T12:03:06.349Z,6.45
2024-05-09T12:05:36.608Z,6.53
2024-05-09T12:08:04.329Z,6.85
2024-05-09T12:10:35.990Z,6.70
2024-05-09T12:13:07.470Z,6.65
2024-05-09T12:15:39.327Z,7.10
2024-05-09T12:18:07.772Z,6.80
2024-05-09T12:20:39.973Z,6.35
2024-05-09T12:23:09.501Z,7.22
2024-05-09T12:25:41.211Z,5.72
2024-05-09T12:28:11.240Z,5.32
2024-05-09T12:30:41.632Z,5.93
2024-05-09T12:33:10.585Z,5.65
2024-05-09T12:35:44.002Z,5.57
2024-05-09T12:38:13.860Z,5.97
2024-05-09T12:40:43.770Z,5.75
2024-05-09T12:45:43.595Z,4.82
2024-05-09T12:50:43.376Z,5.43
2024-05-09T12:53:10.748Z,5.10
2024-05-09T12:55:48.366Z,6.03
2024-05-09T12:58:24.055Z,5.57
2024-05-09T13:00:54.631Z,5.10
2024-05-09T13:03:22.303Z,5.88
2024-05-09T13:05:52.826Z,5.35
2024-05-09T13:08:20.698Z,7.85
2024-05-09T13:10:50.588Z,6.38
2024-05-09T13:15:50.276Z,6.95
2024-05-09T13:18:17.534Z,7.72
2024-05-09T13:20:47.398Z,6.75
2024-05-09T13:23:14.539Z,6.60
2024-05-09T13:25:44.299Z,6.13
2024-05-09T13:28:11.559Z,6.93
2024-05-09T13:30:42.356Z,7.18
2024-05-09T13:33:14.041Z,7.63
2024-05-09T13:35:48.924Z,7.60
2024-05-09T13:38:18.967Z,5.85
2024-05-09T13:40:49.983Z,8.10
2024-05-09T13:43:18.435Z,8.70
2024-05-09T13:45:48.703Z,7.85
2024-05-09T13:50:49.881Z,8.32
2024-05-09T13:53:17.127Z,8.30
2024-05-09T13:55:47.071Z,7.22
2024-05-09T13:58:14.699Z,7.82
2024-05-09T14:00:48.785Z,8.15
2024-05-09T14:03:20.532Z,8.10
2024-05-09T14:05:52.315Z,8.02
2024-05-09T14:08:22.255Z,7.68
2024-05-09T14:10:53.763Z,7.22
2024-05-09T14:13:21.162Z,7.10
2024-05-09T14:15:51.367Z,7.10
2024-05-09T14:20:51.027Z,6.28
2024-05-09T14:23:18.451Z,6.57
2024-05-09T14:25:52.072Z,6.65
2024-05-09T14:28:20.343Z,9.60
2024-05-09T14:30:50.465Z,7.50
2024-05-09T14:33:25.552Z,7.05
2024-05-09T14:35:55.823Z,7.57
2024-05-09T14:38:23.740Z,9.10
2024-05-09T14:40:53.947Z,7.93
2024-05-09T14:45:51.417Z,7.93
2024-05-09T14:48:21.505Z,7.57
2024-05-09T14:50:51.473Z,7.53
2024-05-09T14:53:18.890Z,6.80
2024-05-09T14:55:49.825Z,6.82
2024-05-09T14:58:17.566Z,6.72
2024-05-09T15:00:51.177Z,7.13
2024-05-09T15:03:22.570Z,7.68
2024-05-09T15:05:53.236Z,8.13
2024-05-09T15:08:20.655Z,7.60
2024-05-09T15:10:52.117Z,7.80
2024-05-09T15:13:20.294Z,7.18
2024-05-09T15:15:50.330Z,7.32
2024-05-09T15:18:17.994Z,7.55
2024-05-09T15:20:51.011Z,6.65
2024-05-09T15:23:18.284Z,6.85
2024-05-09T15:25:48.119Z,7.90
2024-05-09T15:28:15.686Z,7.88
2024-05-09T15:30:46.872Z,7.20
2024-05-09T15:33:14.672Z,7.72
2024-05-09T15:35:46.669Z,7.10
2024-05-09T15:38:18.521Z,7.13
2024-05-09T15:40:48.768Z,7.47
2024-05-09T15:43:16.069Z,5.97
2024-05-09T15:45:45.816Z,6.40
2024-05-09T15:48:14.444Z,7.97
2024-05-09T15:50:44.914Z,6.43
2024-05-09T15:53:13.417Z,6.43
2024-05-09T15:55:46.142Z,6.20
2024-05-09T15:58:14.184Z,6.97
2024-05-09T16:00:46.930Z,6.00
2024-05-09T16:03:16.043Z,6.40
2024-05-09T16:05:47.803Z,5.63
2024-05-09T16:08:16.070Z,5.13
2024-05-09T16:10:49.458Z,5.97
2024-05-09T16:13:17.573Z,6.57
2024-05-09T16:15:48.244Z,6.25
2024-05-09T16:20:48.490Z,5.60
2024-05-09T16:23:17.556Z,6.95
2024-05-09T16:25:51.568Z,5.95
2024-05-09T16:28:19.808Z,6.65
2024-05-09T16:30:50.440Z,5.97
2024-05-09T16:33:20.992Z,5.63
2024-05-09T16:35:51.427Z,5.93
2024-05-09T16:38:19.031Z,6.20
2024-05-09T16:40:51.750Z,5.55
2024-05-09T16:43:19.505Z,5.63
2024-05-09T16:45:49.514Z,5.20
2024-05-09T16:48:17.054Z,5.72
2024-05-09T16:50:46.901Z,5.25
2024-05-09T16:53:14.150Z,5.28
2024-05-09T16:55:43.952Z,4.70
2024-05-09T16:58:14.260Z,6.07
2024-05-09T17:00:44.546Z,6.32
2024-05-09T17:03:14.852Z,5.03
2024-05-09T17:05:47.219Z,4.63
2024-05-09T17:08:16.367Z,5.35
2024-05-09T17:10:48.965Z,5.18
2024-05-09T17:13:22.793Z,5.75
2024-05-09T17:15:52.968Z,6.10
2024-05-09T17:18:23.081Z,5.85
2024-05-09T17:20:51.490Z,5.05
2024-05-09T17:23:21.342Z,5.32
2024-05-09T17:25:48.573Z,5.07
2024-05-09T17:28:21.468Z,4.53
2024-05-09T17:30:48.800Z,4.75
2024-05-09T17:33:18.747Z,5.10
2024-05-09T17:35:50.252Z,4.68
2024-05-09T17:38:20.448Z,4.85
2024-05-09T17:40:47.908Z,4.70
2024-05-09T17:43:17.830Z,4.63
2024-05-09T17:45:47.841Z,4.57
2024-05-09T17:48:18.052Z,4.80
2024-05-09T17:50:45.368Z,12.50
2024-05-09T17:53:15.901Z,7.68
2024-05-09T17:55:43.131Z,5.80
2024-05-09T17:58:14.607Z,5.95
2024-05-09T18:00:44.537Z,6.55
2024-05-09T18:03:14.889Z,8.63
2024-05-09T18:08:13.377Z,5.60
2024-05-09T18:10:43.831Z,6.43
2024-05-09T18:13:12.197Z,7.65
2024-05-09T18:15:42.814Z,6.22
2024-05-09T18:18:11.107Z,5.82
2024-05-09T18:20:45.791Z,6.45
2024-05-09T18:23:16.328Z,5.53
2024-05-09T18:25:48.205Z,6.22
2024-05-09T18:28:16.114Z,5.95
2024-05-09T18:30:46.512Z,5.55
2024-05-09T18:33:14.222Z,5.45
2024-05-09T18:35:47.546Z,5.57
2024-05-09T18:38:14.958Z,5.38
2024-05-09T18:40:48.143Z,5.35
2024-05-09T18:43:16.687Z,5.15
2024-05-09T18:45:47.506Z,5.45
2024-05-09T18:48:18.068Z,5.55
2024-05-09T18:50:48.737Z,5.38
2024-05-09T18:53:18.753Z,6.45
2024-05-09T18:55:45.939Z,7.55
2024-05-09T18:58:17.316Z,8.77
2024-05-09T19:00:47.196Z,9.38
2024-05-09T19:03:19.926Z,9.27
2024-05-09T19:05:50.163Z,9.30
2024-05-09T19:08:20.029Z,8.95
2024-05-09T19:10:47.366Z,10.77
2024-05-09T19:13:17.477Z,9.85
2024-05-09T19:15:44.983Z,10.10
2024-05-09T19:18:15.817Z,11.73
2024-05-09T19:20:43.549Z,11.07
2024-05-09T19:23:16.021Z,10.43
2024-05-09T19:25:43.243Z,11.70
2024-05-09T19:28:13.071Z,11.43
2024-05-09T19:30:42.342Z,12.05
2024-05-09T19:33:14.361Z,13.13
2024-05-09T19:35:42.038Z,11.55
2024-05-09T19:38:12.084Z,11.32
2024-05-09T19:40:42.274Z,12.05
2024-05-09T19:43:12.332Z,10.80
2024-05-09T19:45:39.721Z,11.25
2024-05-09T19:48:10.757Z,11.30
2024-05-09T19:50:42.992Z,13.40
2024-05-09T19:53:15.210Z,12.13
2024-05-09T19:58:15.910Z,11.82
2024-05-09T20:00:44.301Z,11.82
2024-05-09T20:03:16.217Z,11.50
2024-05-09T20:05:45.125Z,12.20
2024-05-09T20:08:15.438Z,12.43
2024-05-09T20:10:48.127Z,11.60
2024-05-09T20:13:18.209Z,12.23
2024-05-09T20:15:45.566Z,12.77
2024-05-09T20:18:15.706Z,11.05
2024-05-09T20:20:44.960Z,11.73
2024-05-09T20:23:15.763Z,12.18
2024-05-09T20:25:43.030Z,13.40
2024-05-09T20:28:15.568Z,12.00
2024-05-09T20:30:42.879Z,13.75
2024-05-09T20:33:14.263Z,12.35
2024-05-09T20:35:41.675Z,12.05
2024-05-09T20:38:11.549Z,12.57
2024-05-09T20:40:39.802Z,12.77
2024-05-09T20:43:11.140Z,12.70
2024-05-09T20:45:44.027Z,13.85
2024-05-09T20:48:14.044Z,12.23
2024-05-09T20:50:42.620Z,13.82
2024-05-09T20:53:14.935Z,12.48
2024-05-09T20:55:43.366Z,12.85
2024-05-09T20:58:14.765Z,12.82
2024-05-09T21:00:45.988Z,12.80
2024-05-09T21:03:17.982Z,13.00
2024-05-09T21:05:46.401Z,12.77
2024-05-09T21:08:16.842Z,12.57
2024-05-09T21:10:44.525Z,12.50
2024-05-09T21:13:14.580Z,13.05
2024-05-09T21:15:44.738Z,12.35
2024-05-09T21:18:14.623Z,11.98
2024-05-09T21:20:42.179Z,12.05
2024-05-09T21:23:12.031Z,11.85
2024-05-09T21:25:39.760Z,12.02
2024-05-09T21:28:10.013Z,12.65
2024-05-09T21:30:41.588Z,12.55
2024-05-09T21:33:16.523Z,12.63
2024-05-09T21:35:46.889Z,13.98
2024-05-09T21:38:16.870Z,12.75
2024-05-09T21:40:46.790Z,12.52
2024-05-09T21:43:14.445Z,11.88
2024-05-09T21:45:44.548Z,13.02
2024-05-09T21:48:15.017Z,12.40
2024-05-09T21:50:45.199Z,13.07
2024-05-09T21:53:13.292Z,13.10
2024-05-09T21:55:44.244Z,12.63
2024-05-09T21:58:12.057Z,12.70
2024-05-09T22:00:42.995Z,12.70
2024-05-09T22:03:11.622Z,13.43
2024-05-09T22:05:45.213Z,13.55
2024-05-09T22:08:12.811Z,13.10
2024-05-09T22:10:42.694Z,13.48
2024-05-09T22:13:12.953Z,13.48
2024-05-09T22:15:42.868Z,13.68
2024-05-09T22:18:11.176Z,13.55
2024-05-09T22:20:46.336Z,13.63
2024-05-09T22:23:14.827Z,12.35
2024-05-09T22:25:44.963Z,12.82
2024-05-09T22:28:14.691Z,13.30
2024-05-09T22:30:47.017Z,14.18
2024-05-09T22:33:15.661Z,13.35
2024-05-09T22:35:48.284Z,13.95
2024-05-09T22:38:15.500Z,14.95
2024-05-09T22:40:48.753Z,13.52
2024-05-09T22:43:23.136Z,12.55
2024-05-09T22:45:55.249Z,13.18
2024-05-09T22:50:57.107Z,12.63
2024-05-09T22:53:25.530Z,12.77
2024-05-09T22:55:55.848Z,12.10
2024-05-09T22:58:23.409Z,12.38
2024-05-09T23:00:53.596Z,11.68
2024-05-09T23:03:22.666Z,12.00
2024-05-09T23:05:52.956Z,12.80
2024-05-09T23:08:22.831Z,12.23
2024-05-09T23:10:52.734Z,11.23
2024-05-09T23:13:20.349Z,12.43
2024-05-09T23:15:50.279Z,11.75
2024-05-09T23:18:17.722Z,12.37
2024-05-09T23:20:47.531Z,13.23
2024-05-09T23:23:14.670Z,12.85
2024-05-09T23:25:47.295Z,13.60
2024-05-09T23:28:14.609Z,12.77
2024-05-09T23:30:44.455Z,12.95
2024-05-09T23:33:13.708Z,13.20
2024-05-09T23:35:45.141Z,12.47
2024-05-09T23:40:43.072Z,13.00
2024-05-09T23:43:14.292Z,13.32
2024-05-09T23:45:44.361Z,14.10
2024-05-09T23:48:11.786Z,12.68
2024-05-09T23:50:41.902Z,13.55
2024-05-09T23:53:10.176Z,12.65
2024-05-09T23:55:40.682Z,13.07
2024-05-09T23:58:08.354Z,12.87
